createdAt,value
2018-04-06T00:01:18.420Z,97692.77
2018-04-06T00:03:48.028Z,97686.97
2018-04-06T00:06:18.403Z,97696.00
2018-04-06T00:08:48.183Z,97693.61
2018-04-06T00:11:17.863Z,97691.34
2018-04-06T00:20:37.673Z,97686.66
2018-04-06T00:23:07.419Z,97693.16
2018-04-06T00:25:37.002Z,97686.72
2018-04-06T00:28:06.555Z,97686.38
2018-04-06T00:30:36.250Z,97687.30
2018-04-06T00:33:06.547Z,97688.54
2018-04-06T00:35:36.150Z,97690.01
2018-04-06T00:38:05.838Z,97685.80
2018-04-06T00:40:35.480Z,97684.49
2018-04-06T00:43:05.060Z,97685.89
2018-04-06T00:45:35.595Z,97684.42
2018-04-06T00:48:05.327Z,97682.13
2018-04-06T00:50:36.861Z,97675.14
2018-04-06T00:53:12.317Z,97677.13
2018-04-06T00:55:42.270Z,97680.21
2018-04-06T00:58:13.052Z,97674.45
2018-04-06T01:00:44.061Z,97673.98
2018-04-06T01:03:20.993Z,97674.20
2018-04-06T01:05:50.662Z,97684.47
2018-04-06T01:08:20.367Z,97677.33
2018-04-06T01:10:50.840Z,97680.61
2018-04-06T01:13:20.448Z,97687.24
2018-04-06T01:15:54.674Z,97690.87
2018-04-06T01:18:24.595Z,97684.53
2018-04-06T01:20:55.307Z,97692.50
2018-04-06T01:23:24.912Z,97687.82
2018-04-06T01:25:54.632Z,97691.19
2018-04-06T01:28:24.275Z,97687.39
2018-04-06T01:30:53.815Z,97694.30
2018-04-06T01:33:25.354Z,97705.77
2018-04-06T01:35:55.245Z,97705.20
2018-04-06T01:38:24.869Z,97703.41
2018-04-06T01:40:56.306Z,97703.83
2018-04-06T01:43:27.023Z,97704.10
2018-04-06T01:45:57.032Z,97703.91
2018-04-06T01:48:27.951Z,97703.95
2018-04-06T01:50:57.780Z,97706.97
2018-04-06T01:53:28.834Z,97707.55
2018-04-06T01:55:58.539Z,97704.34
2018-04-06T01:58:28.182Z,97708.67
2018-04-06T02:00:57.794Z,97713.83
2018-04-06T02:03:28.350Z,97715.20
2018-04-06T02:05:57.964Z,97708.53
2018-04-06T02:08:28.366Z,97700.30
2018-04-06T02:10:57.996Z,97705.79
2018-04-06T02:13:27.595Z,97705.28
2018-04-06T02:16:03.175Z,97698.59
2018-04-06T02:18:32.777Z,97702.95
2018-04-06T02:21:10.098Z,97707.98
2018-04-06T02:23:44.280Z,97708.48
2018-04-06T02:26:14.861Z,97712.13
2018-04-06T02:28:45.230Z,97706.51
2018-04-06T02:31:15.809Z,97712.97
2018-04-06T02:33:45.301Z,97705.81
2018-04-06T02:36:15.914Z,97707.75
2018-04-06T02:38:50.385Z,97708.78
2018-04-06T02:41:20.131Z,97709.51
2018-04-06T02:43:50.603Z,97713.52
2018-04-06T02:46:20.424Z,97711.98
2018-04-06T02:48:50.213Z,97714.96
2018-04-06T02:51:20.812Z,97716.52
2018-04-06T02:53:50.763Z,97721.96
2018-04-06T02:56:20.495Z,97719.67
2018-04-06T02:58:50.352Z,97717.37
2018-04-06T03:01:21.240Z,97723.89
2018-04-06T03:03:50.765Z,97720.72
2018-04-06T03:06:20.300Z,97720.94
2018-04-06T03:08:50.064Z,97723.72
2018-04-06T03:11:19.719Z,97728.70
2018-04-06T03:13:49.333Z,97730.22
2018-04-06T03:16:19.746Z,97719.94
2018-04-06T03:18:49.297Z,97732.08
2018-04-06T03:21:18.926Z,97731.72
2018-04-06T03:23:48.548Z,97726.42
2018-04-06T03:26:18.320Z,97725.03
2018-04-06T03:28:47.966Z,97725.93
2018-04-06T03:31:17.487Z,97725.23
2018-04-06T03:33:47.963Z,97726.53
2018-04-06T03:36:19.923Z,97728.66
2018-04-06T03:38:52.610Z,97728.33
2018-04-06T03:41:22.261Z,97732.55
2018-04-06T03:43:52.701Z,97740.38
2018-04-06T03:46:22.231Z,97739.92
2018-04-06T03:48:53.355Z,97745.95
2018-04-06T03:51:23.675Z,97745.09
2018-04-06T03:53:54.016Z,97747.81
2018-04-06T03:56:23.627Z,97748.92
2018-04-06T03:58:54.117Z,97747.09
2018-04-06T04:01:23.664Z,97755.89
2018-04-06T04:03:54.572Z,97759.45
2018-04-06T04:06:24.123Z,97752.30
2018-04-06T04:08:53.701Z,97752.35
2018-04-06T04:11:24.184Z,97748.91
2018-04-06T04:13:53.848Z,97746.30
2018-04-06T04:16:23.508Z,97742.00
2018-04-06T04:18:53.608Z,97749.20
2018-04-06T04:21:23.343Z,97744.34
2018-04-06T04:23:53.050Z,97745.37
2018-04-06T04:26:22.734Z,97746.80
2018-04-06T04:28:52.994Z,97742.09
2018-04-06T04:31:22.540Z,97739.53
2018-04-06T04:33:52.096Z,97743.02
2018-04-06T04:36:21.607Z,97747.19
2018-04-06T04:38:51.157Z,97747.10
2018-04-06T04:41:20.660Z,97751.55
2018-04-06T04:43:50.176Z,97750.97
2018-04-06T04:46:21.296Z,97752.50
2018-04-06T04:48:51.138Z,97758.97
2018-04-06T04:51:21.438Z,97761.61
2018-04-06T04:53:51.010Z,97763.41
2018-04-06T04:56:20.470Z,97762.91
2018-04-06T04:58:50.751Z,97775.72
2018-04-06T05:01:20.328Z,97779.65
2018-04-06T05:03:50.638Z,97779.28
2018-04-06T05:06:22.216Z,97790.77
2018-04-06T05:08:51.739Z,97784.94
2018-04-06T05:11:21.367Z,97785.55
2018-04-06T05:13:51.858Z,97785.90
2018-04-06T05:16:22.364Z,97792.23
2018-04-06T05:18:52.665Z,97793.63
2018-04-06T05:21:22.263Z,97796.24
2018-04-06T05:23:51.830Z,97801.79
2018-04-06T05:26:26.262Z,97803.94
2018-04-06T05:28:55.735Z,97806.53
2018-04-06T05:31:25.516Z,97796.66
2018-04-06T05:33:55.441Z,97801.59
2018-04-06T05:36:25.049Z,97806.73
2018-04-06T05:38:54.722Z,97808.95
2018-04-06T05:41:24.194Z,97804.69
2018-04-06T05:43:55.288Z,97805.36
2018-04-06T05:46:24.818Z,97802.67
2018-04-06T05:48:54.344Z,97808.65
2018-04-06T05:51:26.416Z,97809.84
2018-04-06T05:53:56.930Z,97815.63
2018-04-06T05:56:27.269Z,97818.89
2018-04-06T05:58:57.570Z,97827.31
2018-04-06T06:01:27.243Z,97823.38
2018-04-06T06:03:58.102Z,97827.75
2018-04-06T06:06:29.861Z,97833.52
2018-04-06T06:08:59.476Z,97833.95
2018-04-06T06:11:30.142Z,97839.14
2018-04-06T06:14:00.688Z,97836.48
2018-04-06T06:16:30.286Z,97835.17
2018-04-06T06:18:59.783Z,97834.98
2018-04-06T06:21:29.762Z,97840.92
2018-04-06T06:23:59.309Z,97841.67
2018-04-06T06:26:41.895Z,97839.75
2018-04-06T06:29:14.338Z,97841.64
2018-04-06T06:31:44.097Z,97839.73
2018-04-06T06:34:15.703Z,97843.93
2018-04-06T06:36:46.743Z,97843.59
2018-04-06T06:39:16.359Z,97849.52
2018-04-06T06:41:45.845Z,97851.63
2018-04-06T06:44:15.574Z,97847.27
2018-04-06T06:46:47.144Z,97847.13
2018-04-06T06:49:17.371Z,97856.92
2018-04-06T06:51:48.638Z,97855.56
2018-04-06T06:54:19.443Z,97852.94
2018-04-06T06:56:48.880Z,97863.25
2018-04-06T06:59:19.551Z,97857.14
2018-04-06T07:01:49.052Z,97863.83
2018-04-06T07:04:18.642Z,97863.12
2018-04-06T07:06:48.344Z,97867.28
2018-04-06T07:09:18.645Z,97865.44
2018-04-06T07:11:48.215Z,97872.48
2018-04-06T07:14:17.789Z,97868.23
2018-04-06T07:16:47.336Z,97867.92
2018-04-06T07:19:16.802Z,97868.76
2018-04-06T07:21:46.409Z,97855.41
2018-04-06T07:24:15.911Z,97866.02
2018-04-06T07:26:45.461Z,97862.52
2018-04-06T07:29:15.150Z,97864.29
2018-04-06T07:31:44.713Z,97868.80
2018-04-06T07:34:14.195Z,97873.78
2018-04-06T07:36:43.817Z,97885.33
2018-04-06T07:39:13.335Z,97877.60
2018-04-06T07:41:42.893Z,97884.27
2018-04-06T07:44:12.442Z,97880.47
2018-04-06T07:46:49.812Z,97877.64
2018-04-06T07:49:20.727Z,97883.47
2018-04-06T07:51:50.485Z,97883.80
2018-04-06T07:54:20.049Z,97887.69
2018-04-06T07:56:49.568Z,97882.48
2018-04-06T07:59:19.152Z,97887.09
2018-04-06T08:01:49.065Z,97883.38
2018-04-06T08:04:19.488Z,97884.88
2018-04-06T08:06:49.084Z,97882.87
2018-04-06T08:09:19.112Z,97883.27
2018-04-06T08:11:48.720Z,97881.16
2018-04-06T08:14:18.246Z,97881.84
2018-04-06T08:16:47.765Z,97875.73
2018-04-06T08:19:17.703Z,97870.73
2018-04-06T08:21:47.221Z,97877.09
2018-04-06T08:24:16.763Z,97874.48
2018-04-06T08:26:47.165Z,97868.04
2018-04-06T08:29:16.651Z,97873.87
2018-04-06T08:31:46.277Z,97872.20
2018-04-06T08:34:15.864Z,97872.38
2018-04-06T08:36:45.454Z,97872.09
2018-04-06T08:39:15.055Z,97874.42
2018-04-06T08:41:44.793Z,97869.58
2018-04-06T08:44:14.427Z,97868.88
2018-04-06T08:46:44.754Z,97868.32
2018-04-06T08:49:15.065Z,97868.35
2018-04-06T08:51:46.023Z,97868.32
2018-04-06T08:54:17.545Z,97872.28
2018-04-06T08:56:47.671Z,97876.63
2018-04-06T08:59:18.126Z,97867.44
2018-04-06T09:01:48.396Z,97870.52
2018-04-06T09:04:17.971Z,97871.05
2018-04-06T09:09:29.115Z,97871.49
2018-04-06T09:11:58.659Z,97864.53
2018-04-06T09:14:29.030Z,97859.77
2018-04-06T09:16:58.620Z,97852.29
2018-04-06T09:19:28.188Z,97856.38
2018-04-06T09:21:58.535Z,97845.33
2018-04-06T09:24:28.101Z,97848.73
2018-04-06T09:26:57.622Z,97844.55
2018-04-06T09:29:28.003Z,97845.03
2018-04-06T09:31:57.464Z,97847.91
2018-04-06T09:34:27.905Z,97843.91
2018-04-06T09:36:58.246Z,97840.49
2018-04-06T09:39:27.845Z,97850.75
2018-04-06T09:41:59.446Z,97843.20
2018-04-06T09:44:40.178Z,97848.12
2018-04-06T09:47:09.711Z,97847.41
2018-04-06T09:49:39.277Z,97849.95
2018-04-06T09:52:09.546Z,97841.75
2018-04-06T09:54:39.056Z,97846.03
2018-04-06T09:57:08.678Z,97845.02
2018-04-06T09:59:38.199Z,97832.51
2018-04-06T10:02:13.524Z,97840.41
2018-04-06T10:04:43.073Z,97836.99
2018-04-06T10:07:13.389Z,97840.36
2018-04-06T10:09:43.699Z,97845.20
2018-04-06T10:12:13.152Z,97837.78
2018-04-06T10:14:42.719Z,97828.95
2018-04-06T10:17:13.157Z,97830.07
2018-04-06T10:19:43.469Z,97826.68
2018-04-06T10:22:13.767Z,97830.05
2018-04-06T10:24:43.393Z,97832.02
2018-04-06T10:27:12.946Z,97821.66
2018-04-06T10:29:42.486Z,97825.08
2018-04-06T10:32:12.017Z,97818.60
2018-04-06T10:34:42.360Z,97824.16
2018-04-06T10:37:12.688Z,97819.96
2018-04-06T10:39:43.006Z,97817.75
2018-04-06T10:42:13.329Z,97818.12
2018-04-06T10:44:43.604Z,97817.94
2018-04-06T10:47:13.250Z,97817.89
2018-04-06T10:49:42.783Z,97821.24
2018-04-06T10:52:13.059Z,97810.16
2018-04-06T10:54:42.605Z,97805.84
2018-04-06T10:57:12.876Z,97805.98
2018-04-06T10:59:42.366Z,97808.70
2018-04-06T11:02:11.871Z,97799.91
2018-04-06T11:04:42.515Z,97799.09
2018-04-06T11:07:19.780Z,97802.89
2018-04-06T11:09:49.266Z,97799.27
2018-04-06T11:12:19.561Z,97800.52
2018-04-06T11:14:49.138Z,97802.81
2018-04-06T11:17:18.650Z,97801.62
2018-04-06T11:19:48.986Z,97799.28
2018-04-06T11:22:18.747Z,97797.80
2018-04-06T11:25:01.227Z,97795.01
2018-04-06T11:27:31.541Z,97792.31
2018-04-06T11:30:01.679Z,97794.20
2018-04-06T11:32:31.944Z,97790.00
2018-04-06T11:35:01.963Z,97786.91
2018-04-06T11:37:31.466Z,97791.27
2018-04-06T11:40:01.105Z,97788.31
2018-04-06T11:42:30.730Z,97791.94
2018-04-06T11:45:00.220Z,97788.73
2018-04-06T11:47:29.847Z,97769.45
2018-04-06T11:49:59.488Z,97778.75
2018-04-06T11:52:29.331Z,97788.93
2018-04-06T11:54:59.238Z,97787.64
2018-04-06T11:57:50.161Z,97784.27
2018-04-06T12:14:41.174Z,97773.77
2018-04-06T12:17:11.016Z,97770.34
2018-04-06T12:19:40.597Z,97779.13
2018-04-06T12:22:10.152Z,97772.36
2018-04-06T12:24:40.545Z,97769.47
2018-04-06T12:27:10.098Z,97777.63
2018-04-06T12:29:40.334Z,97769.38
2018-04-06T12:32:09.940Z,97767.81
2018-04-06T12:34:39.420Z,97767.13
2018-04-06T12:37:09.035Z,97769.00
2018-04-06T12:39:39.370Z,97761.73
2018-04-06T12:42:09.673Z,97760.15
2018-04-06T12:44:39.276Z,97761.20
2018-04-06T12:47:09.643Z,97758.13
2018-04-06T12:49:39.183Z,97755.62
2018-04-06T12:52:08.892Z,97758.23
2018-04-06T12:54:38.444Z,97753.55
2018-04-06T12:57:09.005Z,97745.23
2018-04-06T12:59:38.580Z,97752.09
2018-04-06T13:02:08.914Z,97751.03
2018-04-06T13:04:39.296Z,97750.52
2018-04-06T13:07:08.929Z,97744.92
2018-04-06T13:09:38.706Z,97739.83
2018-04-06T13:12:08.189Z,97739.73
2018-04-06T13:14:37.863Z,97740.31
2018-04-06T13:17:08.093Z,97736.33
2018-04-06T13:19:38.446Z,97729.55
2018-04-06T13:22:08.904Z,97736.70
2018-04-06T13:24:38.469Z,97732.86
2018-04-06T13:27:07.960Z,97722.61
2018-04-06T13:29:37.581Z,97724.47
2018-04-06T13:32:07.338Z,97720.66
2018-04-06T13:34:36.950Z,97719.88
2018-04-06T13:37:07.498Z,97713.20
2018-04-06T13:39:37.889Z,97708.31
2018-04-06T13:42:07.636Z,97702.95
2018-04-06T13:44:37.131Z,97701.19
2018-04-06T13:47:13.565Z,97707.23
2018-04-06T13:49:48.072Z,97703.29
2018-04-06T13:52:17.664Z,97708.30
2018-04-06T13:54:47.234Z,97708.30
2018-04-06T13:57:16.955Z,97698.48
2018-04-06T13:59:46.600Z,97696.57
2018-04-06T14:02:16.153Z,97697.91
2018-04-06T14:04:45.696Z,97688.05
2018-04-06T14:07:15.656Z,97689.95
2018-04-06T14:09:45.287Z,97692.18
2018-04-06T14:12:14.886Z,97694.03
2018-04-06T14:14:44.504Z,97696.80
2018-04-06T14:17:14.122Z,97697.36
2018-04-06T14:19:43.676Z,97689.63
2018-04-06T14:22:13.372Z,97689.27
2018-04-06T14:24:42.867Z,97689.02
2018-04-06T14:27:13.176Z,97680.72
2018-04-06T14:29:42.670Z,97684.98
2018-04-06T14:32:12.219Z,97691.64
2018-04-06T14:34:41.929Z,97682.63
2018-04-06T14:37:11.403Z,97677.52
2018-04-06T14:39:41.041Z,97680.11
2018-04-06T14:42:10.974Z,97677.90
2018-04-06T14:44:40.444Z,97682.78
2018-04-06T14:47:22.741Z,97678.03
2018-04-06T14:49:52.277Z,97673.41
2018-04-06T14:52:22.623Z,97672.22
2018-04-06T14:54:52.359Z,97675.30
2018-04-06T14:57:21.855Z,97663.47
2018-04-06T14:59:51.535Z,97667.52
2018-04-06T15:02:21.704Z,97664.34
2018-04-06T15:04:51.286Z,97663.49
2018-04-06T15:07:20.807Z,97662.61
2018-04-06T15:09:50.578Z,97661.75
2018-04-06T15:12:21.032Z,97659.98
2018-04-06T15:14:50.854Z,97659.81
2018-04-06T15:17:21.016Z,97671.11
2018-04-06T15:19:51.539Z,97664.36
2018-04-06T15:22:21.163Z,97664.48
2018-04-06T15:24:51.771Z,97661.06
2018-04-06T15:27:21.441Z,97660.16
2018-04-06T15:29:51.205Z,97660.36
2018-04-06T15:32:21.082Z,97660.03
2018-04-06T15:34:50.657Z,97656.42
2018-04-06T15:37:21.239Z,97653.04
2018-04-06T15:39:50.990Z,97654.35
2018-04-06T15:42:22.121Z,97649.92
2018-04-06T15:44:51.944Z,97651.91
2018-04-06T15:47:22.600Z,97651.56
2018-04-06T15:49:52.423Z,97644.80
2018-04-06T15:52:22.324Z,97650.68
2018-04-06T15:54:52.136Z,97641.79
2018-04-06T15:57:21.943Z,97646.66
2018-04-06T15:59:51.811Z,97643.91
2018-04-06T16:02:21.691Z,97638.37
2018-04-06T16:04:51.497Z,97640.50
2018-04-06T16:07:21.552Z,97637.64
2018-04-06T16:09:52.228Z,97636.91
2018-04-06T16:12:22.865Z,97636.16
2018-04-06T16:14:52.861Z,97632.44
2018-04-06T16:17:23.599Z,97635.34
2018-04-06T16:19:55.038Z,97637.70
2018-04-06T16:22:25.023Z,97633.33
2018-04-06T16:24:54.887Z,97631.30
2018-04-06T16:27:24.752Z,97633.02
2018-04-06T16:29:54.632Z,97628.33
2018-04-06T16:32:25.280Z,97627.58
2018-04-06T16:34:55.290Z,97632.27
2018-04-06T16:37:25.129Z,97636.64
2018-04-06T16:39:55.022Z,97635.94
2018-04-06T16:42:24.984Z,97627.17
2018-04-06T16:44:55.468Z,97628.41
2018-04-06T16:47:25.351Z,97621.64
2018-04-06T16:49:55.570Z,97625.70
2018-04-06T16:52:25.431Z,97623.42
2018-04-06T16:54:55.402Z,97623.51
2018-04-06T16:57:25.480Z,97627.09
2018-04-06T16:59:55.377Z,97630.20
2018-04-06T17:02:25.219Z,97631.03
2018-04-06T17:04:55.143Z,97633.26
2018-04-06T17:07:25.018Z,97632.77
2018-04-06T17:09:54.917Z,97640.31
2018-04-06T17:12:25.484Z,97633.22
2018-04-06T17:14:55.314Z,97642.79
2018-04-06T17:17:26.660Z,97640.11
2018-04-06T17:23:08.226Z,97646.04
2018-04-06T17:25:38.043Z,97648.35
2018-04-06T17:28:07.984Z,97643.52
2018-04-06T17:30:37.987Z,97647.22
2018-04-06T17:33:08.033Z,97640.77
2018-04-06T17:35:37.885Z,97646.23
2018-04-06T17:38:08.478Z,97653.85
2018-04-06T17:40:39.598Z,97658.80
2018-04-06T17:43:09.544Z,97658.82
2018-04-06T17:45:39.407Z,97656.08
2018-04-06T17:48:10.027Z,97652.89
2018-04-06T17:50:40.634Z,97659.80
2018-04-06T17:53:10.496Z,97662.84
2018-04-06T17:55:43.733Z,97663.25
2018-04-06T17:58:15.263Z,97666.83
2018-04-06T18:00:46.923Z,97668.87
2018-04-06T18:03:17.060Z,97668.33
2018-04-06T18:05:47.642Z,97671.33
2018-04-06T18:08:17.907Z,97672.83
2018-04-06T18:10:52.388Z,97679.35
2018-04-06T18:13:26.532Z,97683.92
2018-04-06T18:15:57.116Z,97683.09
2018-04-06T18:18:27.008Z,97681.48
2018-04-06T18:20:56.781Z,97688.83
2018-04-06T18:23:26.684Z,97696.41
2018-04-06T18:25:56.604Z,97692.10
2018-04-06T18:28:26.625Z,97696.73
2018-04-06T18:30:56.595Z,97701.22
2018-04-06T18:33:26.453Z,97707.28
2018-04-06T18:35:56.492Z,97705.50
2018-04-06T18:38:26.359Z,97707.55
2018-04-06T18:40:56.986Z,97705.45
2018-04-06T18:43:26.827Z,97707.25
2018-04-06T18:45:56.800Z,97708.84
2018-04-06T18:48:26.748Z,97712.27
2018-04-06T18:50:57.402Z,97717.47
2018-04-06T18:53:27.278Z,97719.16
2018-04-06T18:55:57.894Z,97726.71
2018-04-06T18:58:28.035Z,97724.16
2018-04-06T19:01:00.051Z,97721.54
2018-04-06T19:03:33.163Z,97727.75
2018-04-06T19:06:03.776Z,97719.95
2018-04-06T19:08:35.003Z,97721.45
2018-04-06T19:11:13.400Z,97731.30
2018-04-06T19:13:46.199Z,97736.60
2018-04-06T19:16:17.299Z,97727.71
2018-04-06T19:18:48.074Z,97731.84
2018-04-06T19:21:18.927Z,97725.60
2018-04-06T19:23:48.823Z,97732.78
2018-04-06T19:26:19.382Z,97731.80
2018-04-06T19:28:51.274Z,97731.42
2018-04-06T19:31:22.564Z,97735.42
2018-04-06T19:33:53.679Z,97737.73
2018-04-06T19:36:24.064Z,97734.63
2018-04-06T19:38:55.030Z,97737.72
2018-04-06T19:41:25.205Z,97733.38
2018-04-06T19:43:55.139Z,97737.13
2018-04-06T19:46:25.006Z,97732.97
2018-04-06T19:48:55.678Z,97739.91
2018-04-06T19:51:25.786Z,97728.72
2018-04-06T19:53:55.709Z,97734.75
2018-04-06T19:56:25.516Z,97737.28
2018-04-06T19:58:56.319Z,97740.41
2018-04-06T20:01:26.988Z,97734.11
2018-04-06T20:03:57.042Z,97733.95
2018-04-06T20:06:26.918Z,97740.41
2018-04-06T20:08:57.053Z,97738.73
2018-04-06T20:11:26.989Z,97730.94
2018-04-06T20:13:56.813Z,97740.62
2018-04-06T20:16:26.665Z,97741.16
2018-04-06T20:18:57.934Z,97747.30
2018-04-06T20:21:27.774Z,97740.90
2018-04-06T20:23:57.648Z,97739.92
2018-04-06T20:26:27.494Z,97737.96
2018-04-06T20:28:57.514Z,97747.77
2018-04-06T20:31:27.422Z,97738.75
2018-04-06T20:33:57.217Z,97733.81
2018-04-06T20:36:26.964Z,97748.53
2018-04-06T20:38:56.874Z,97740.06
2018-04-06T20:41:26.729Z,97741.52
2018-04-06T20:44:05.522Z,97747.33
2018-04-06T20:46:35.324Z,97743.72
2018-04-06T20:49:05.260Z,97744.31
2018-04-06T20:51:35.106Z,97742.41
2018-04-06T20:54:10.325Z,97744.80
2018-04-06T20:56:41.494Z,97754.64
2018-04-06T20:59:12.550Z,97751.94
2018-04-06T21:01:42.507Z,97749.38
2018-04-06T21:04:12.490Z,97753.09
2018-04-06T21:06:42.275Z,97747.41
2018-04-06T21:09:12.727Z,97755.28
2018-04-06T21:11:43.072Z,97751.26
2018-04-06T21:14:12.993Z,97752.33
2018-04-06T21:16:42.920Z,97751.08
2018-04-06T21:19:13.475Z,97748.27
2018-04-06T21:21:44.166Z,97741.30
2018-04-06T21:24:13.759Z,97746.13
2018-04-06T21:26:43.827Z,97745.45
2018-04-06T21:29:13.516Z,97744.19
2018-04-06T21:31:43.515Z,97743.34
2018-04-06T21:34:13.034Z,97736.02
2018-04-06T21:36:42.783Z,97738.03
2018-04-06T21:39:13.016Z,97736.84
2018-04-06T21:41:42.937Z,97732.30
2018-04-06T21:44:13.178Z,97731.92
2018-04-06T21:46:42.970Z,97729.05
2018-04-06T21:49:13.077Z,97724.83
2018-04-06T21:51:43.463Z,97725.52
2018-04-06T21:54:13.016Z,97720.87
2018-04-06T21:56:43.030Z,97724.93
2018-04-06T21:59:13.469Z,97721.53
2018-04-06T22:01:43.839Z,97715.50
2018-04-06T22:04:13.473Z,97711.78
2018-04-06T22:06:43.465Z,97717.59
2018-04-06T22:09:12.942Z,97721.62
2018-04-06T22:11:42.681Z,97723.50
2018-04-06T22:14:13.002Z,97726.92
2018-04-06T22:16:42.927Z,97722.94
2018-04-06T22:19:12.442Z,97721.44
2018-04-06T22:21:42.641Z,97720.06
2018-04-06T22:24:12.480Z,97728.27
2018-04-06T22:26:41.938Z,97719.24
2018-04-06T22:29:14.506Z,97717.48
2018-04-06T22:31:44.803Z,97719.30
2018-04-06T22:34:14.596Z,97727.05
2018-04-06T22:36:45.014Z,97733.92
2018-04-06T22:39:14.684Z,97733.81
2018-04-06T22:41:44.731Z,97729.90
2018-04-06T22:44:14.349Z,97733.50
2018-04-06T22:46:44.170Z,97733.89
2018-04-06T22:49:13.791Z,97737.94
2018-04-06T22:51:43.651Z,97737.58
2018-04-06T22:54:13.176Z,97729.09
2018-04-06T22:56:43.068Z,97731.23
2018-04-06T22:59:12.675Z,97736.86
2018-04-06T23:01:42.222Z,97741.55
2018-04-06T23:04:11.798Z,97739.36
2018-04-06T23:06:41.363Z,97738.23
2018-04-06T23:09:11.145Z,97736.48
2018-04-06T23:11:40.702Z,97741.63
2018-04-06T23:14:11.655Z,97739.30
2018-04-06T23:16:41.156Z,97740.62
2018-04-06T23:19:11.531Z,97740.87
2018-04-06T23:21:41.001Z,97738.42
2018-04-06T23:24:10.608Z,97732.84
2018-04-06T23:26:40.235Z,97732.09
2018-04-06T23:29:09.790Z,97738.83
2018-04-06T23:31:40.130Z,97738.36
2018-04-06T23:34:10.396Z,97732.27
2018-04-06T23:36:39.865Z,97730.42
2018-04-06T23:39:10.315Z,97730.83
2018-04-06T23:41:39.786Z,97732.45
2018-04-06T23:44:10.109Z,97736.88
2018-04-06T23:46:40.441Z,97725.45
2018-04-06T23:49:09.910Z,97729.59
2018-04-06T23:51:39.463Z,97724.36
2018-04-06T23:54:09.766Z,97723.88
2018-04-06T23:56:39.269Z,97725.23
2018-04-06T23:59:08.770Z,97724.28
